Time;durP1;ratioP1;P1;durP2;ratioP2;P2;SDS_P1;SDS_P2;PMS_P1;PMS_P2;Temp;Humidity;BMP_temperature;BMP_pressure;BME280_temperature;BME280_humidity;BME280_pressure;Samples;Min_cycle;Max_cycle;Signal;HPM_P1;HPM_P2
2023/03/31 00:01:40;;;;;;;10.98;3.50;;;10.40;99.90;;;;;;5111910;28;20528;-64
2023/03/31 00:04:08;;;;;;;13.77;3.85;;;10.40;99.90;;;;;;5112448;28;20107;-64
2023/03/31 00:06:43;;;;;;;13.00;2.95;;;10.40;99.90;;;;;;5077502;28;20047;-64
2023/03/31 00:09:23;;;;;;;21.80;4.90;;;10.40;99.90;;;;;;5111571;28;20054;-65
2023/03/31 00:11:50;;;;;;;17.75;3.58;;;10.40;99.90;;;;;;5112289;28;20344;-64
2023/03/31 00:14:24;;;;;;;17.00;3.08;;;10.30;99.90;;;;;;5112002;28;20416;-65
2023/03/31 00:16:57;;;;;;;16.90;3.95;;;10.30;99.90;;;;;;5111872;28;20043;-65
2023/03/31 00:19:23;;;;;;;10.65;3.13;;;10.30;99.90;;;;;;5093713;28;20443;-64
2023/03/31 00:21:53;;;;;;;13.60;3.35;;;10.30;99.90;;;;;;5094140;28;20052;-63
2023/03/31 00:24:19;;;;;;;16.20;3.10;;;10.20;99.90;;;;;;5093766;28;20052;-64
2023/03/31 00:26:45;;;;;;;13.57;3.20;;;10.20;99.90;;;;;;5094026;28;20139;-64
2023/03/31 00:29:12;;;;;;;13.15;2.97;;;10.10;99.90;;;;;;5111450;28;20048;-64
2023/03/31 00:31:39;;;;;;;12.23;3.25;;;10.10;99.90;;;;;;5093467;28;20436;-65
2023/03/31 00:34:07;;;;;;;15.25;3.03;;;10.10;99.90;;;;;;5111669;28;20083;-63
2023/03/31 00:36:35;;;;;;;14.15;3.22;;;10.10;99.90;;;;;;5112788;28;20360;-64
2023/03/31 00:39:08;;;;;;;16.35;3.10;;;10.00;99.90;;;;;;5093315;28;20043;-64
2023/03/31 00:41:39;;;;;;;13.73;3.03;;;10.00;99.90;;;;;;5111960;28;20432;-65
2023/03/31 00:44:24;;;;;;;11.40;3.03;;;10.00;99.90;;;;;;5077342;28;20087;-63
2023/03/31 00:47:12;;;;;;;16.67;3.60;;;10.00;99.90;;;;;;5111231;28;20517;-64
2023/03/31 00:49:52;;;;;;;18.02;2.67;;;10.00;99.90;;;;;;5090065;28;20100;-67
2023/03/31 00:52:23;;;;;;;11.30;3.40;;;9.90;99.90;;;;;;5091260;28;20047;-64
2023/03/31 00:54:55;;;;;;;11.65;3.00;;;9.90;99.90;;;;;;5091424;28;20044;-64
2023/03/31 00:57:24;;;;;;;12.88;3.90;;;9.90;99.90;;;;;;5075954;28;20055;-65
2023/03/31 00:59:56;;;;;;;13.60;3.10;;;9.90;99.90;;;;;;5111759;28;20124;-64
2023/03/31 01:02:26;;;;;;;15.05;4.13;;;9.90;99.90;;;;;;5111538;28;20048;-64
2023/03/31 01:04:58;;;;;;;11.30;2.92;;;9.80;99.90;;;;;;5111905;28;20086;-64
2023/03/31 01:07:32;;;;;;;12.90;2.97;;;9.90;99.90;;;;;;5110792;28;20517;-64
2023/03/31 01:10:01;;;;;;;13.10;3.28;;;9.80;99.90;;;;;;5111737;28;20052;-64
2023/03/31 01:12:27;;;;;;;19.05;3.47;;;9.90;99.90;;;;;;5111518;28;20086;-64
2023/03/31 01:14:54;;;;;;;17.23;3.10;;;9.90;99.90;;;;;;5111648;28;20169;-63
2023/03/31 01:17:21;;;;;;;16.60;3.50;;;9.90;99.90;;;;;;5110654;28;20442;-63
2023/03/31 01:19:56;;;;;;;14.57;3.75;;;9.80;99.90;;;;;;5111504;28;20090;-64
2023/03/31 01:22:44;;;;;;;18.77;3.90;;;9.80;99.90;;;;;;5111434;28;20383;-64
2023/03/31 01:25:41;;;;;;;11.52;2.60;;;9.90;99.90;;;;;;5111133;28;20094;-63
2023/03/31 01:28:35;;;;;;;10.68;3.15;;;9.90;99.90;;;;;;5110737;28;20083;-64
2023/03/31 01:31:20;;;;;;;15.13;3.85;;;9.90;99.90;;;;;;5111287;28;20099;-63
2023/03/31 01:34:16;;;;;;;17.25;4.75;;;9.90;99.90;;;;;;5111260;28;20474;-63
2023/03/31 01:36:53;;;;;;;14.75;3.25;;;9.90;99.90;;;;;;5111186;28;20077;-63
2023/03/31 01:39:39;;;;;;;10.90;3.38;;;9.90;99.90;;;;;;5111068;28;20539;-64
2023/03/31 01:42:32;;;;;;;15.35;3.53;;;9.80;99.90;;;;;;5111372;28;20095;-63
2023/03/31 01:45:17;;;;;;;14.77;3.13;;;9.80;99.90;;;;;;5083490;28;20079;-63
2023/03/31 01:48:05;;;;;;;8.35;2.85;;;9.80;99.90;;;;;;5099994;28;20047;-63
2023/03/31 01:50:44;;;;;;;16.45;4.03;;;9.80;99.90;;;;;;5096651;28;20098;-64
2023/03/31 01:53:30;;;;;;;14.00;3.13;;;9.90;99.90;;;;;;5114858;28;20047;-63
2023/03/31 01:56:16;;;;;;;12.35;3.78;;;9.90;99.90;;;;;;5114387;28;20360;-63
2023/03/31 01:58:59;;;;;;;16.58;3.45;;;9.90;99.90;;;;;;5113876;28;20047;-62
2023/03/31 02:01:34;;;;;;;9.52;2.65;;;9.90;99.90;;;;;;5114777;28;20052;-63
2023/03/31 02:04:09;;;;;;;11.57;3.20;;;9.90;99.90;;;;;;5114730;28;20079;-63
2023/03/31 02:06:42;;;;;;;14.98;3.58;;;10.00;99.90;;;;;;5114640;28;20075;-63
2023/03/31 02:09:15;;;;;;;10.48;3.88;;;9.90;99.90;;;;;;5096656;28;20059;-62
2023/03/31 02:11:43;;;;;;;7.68;2.88;;;9.90;99.90;;;;;;5114807;28;20044;-63
2023/03/31 02:14:13;;;;;;;9.80;3.65;;;10.00;99.90;;;;;;5114789;28;20079;-62
2023/03/31 02:16:46;;;;;;;12.63;3.67;;;10.00;99.90;;;;;;5114613;28;20139;-63
2023/03/31 02:19:17;;;;;;;9.18;3.25;;;10.00;99.90;;;;;;5114530;28;20138;-63
2023/03/31 02:21:48;;;;;;;9.15;3.85;;;10.00;99.90;;;;;;5114192;28;20463;-64
2023/03/31 02:24:18;;;;;;;10.48;3.97;;;10.10;99.90;;;;;;5114096;28;20105;-64
2023/03/31 02:27:08;;;;;;;13.93;3.97;;;10.10;99.90;;;;;;5114207;28;20075;-64
2023/03/31 02:29:35;;;;;;;12.70;4.03;;;10.20;99.90;;;;;;5074785;28;20079;-63
2023/03/31 02:32:25;;;;;;;11.50;3.60;;;10.20;99.90;;;;;;5114255;28;20090;-65
2023/03/31 02:34:54;;;;;;;11.65;3.38;;;10.10;99.90;;;;;;5114023;28;20066;-63
2023/03/31 02:37:21;;;;;;;9.98;4.13;;;10.10;99.90;;;;;;5113454;28;20044;-65
2023/03/31 02:39:50;;;;;;;11.80;3.25;;;10.10;99.90;;;;;;5113991;28;20455;-65
2023/03/31 02:42:17;;;;;;;9.52;3.25;;;10.20;99.90;;;;;;5114086;28;20075;-63
2023/03/31 02:44:43;;;;;;;11.00;3.28;;;10.20;99.90;;;;;;5114108;28;20048;-63
2023/03/31 02:47:13;;;;;;;10.10;3.67;;;10.20;99.90;;;;;;5095116;28;20051;-64
2023/03/31 02:49:44;;;;;;;13.75;4.10;;;10.20;99.90;;;;;;5075493;28;20090;-64
2023/03/31 02:52:30;;;;;;;9.88;3.10;;;10.20;99.90;;;;;;5114775;27;20067;-64
2023/03/31 02:55:29;;;;;;;8.13;3.63;;;10.20;99.90;;;;;;5121425;27;20035;-63
2023/03/31 02:58:41;;;;;;;12.30;3.45;;;10.30;99.90;;;;;;5119400;27;20061;-64
2023/03/31 03:01:16;;;;;;;6.68;3.53;;;10.30;99.90;;;;;;5120765;27;20047;-63
2023/03/31 03:04:00;;;;;;;9.52;4.13;;;10.20;99.90;;;;;;5100562;28;20092;-64
2023/03/31 03:06:52;;;;;;;8.68;3.53;;;10.30;99.90;;;;;;5095595;28;20066;-63
2023/03/31 03:09:34;;;;;;;8.35;3.50;;;10.20;99.90;;;;;;5095171;28;20047;-63
2023/03/31 03:12:31;;;;;;;10.68;3.88;;;10.30;99.90;;;;;;5095053;28;20124;-63
2023/03/31 03:15:08;;;;;;;8.75;4.13;;;10.20;99.90;;;;;;5113050;28;20407;-63
2023/03/31 03:17:46;;;;;;;10.10;4.60;;;10.30;99.90;;;;;;5091395;28;20051;-63
2023/03/31 03:20:14;;;;;;;10.38;4.45;;;10.20;99.90;;;;;;5095387;28;20079;-63
2023/03/31 03:22:41;;;;;;;11.20;4.45;;;10.30;99.90;;;;;;5095067;28;20131;-62
2023/03/31 03:25:11;;;;;;;9.35;4.05;;;10.20;99.90;;;;;;5094693;28;20085;-62
2023/03/31 03:27:38;;;;;;;10.48;4.60;;;10.20;99.90;;;;;;5094406;28;20135;-63
2023/03/31 03:30:07;;;;;;;9.80;3.92;;;10.20;99.90;;;;;;5112755;28;20048;-63
2023/03/31 03:32:34;;;;;;;11.77;5.28;;;10.30;99.90;;;;;;5077524;28;20482;-63
2023/03/31 03:35:01;;;;;;;12.25;4.20;;;10.20;99.90;;;;;;5128747;27;20048;-64
2023/03/31 03:37:28;;;;;;;7.82;3.95;;;10.20;99.90;;;;;;5095498;28;20054;-63
2023/03/31 03:39:54;;;;;;;10.52;5.40;;;10.30;99.90;;;;;;5094631;28;20086;-63
2023/03/31 03:42:21;;;;;;;10.38;4.05;;;10.30;99.90;;;;;;5094443;28;20083;-63
2023/03/31 03:44:47;;;;;;;7.53;4.80;;;10.20;99.90;;;;;;5093896;28;20073;-63
2023/03/31 03:47:14;;;;;;;11.73;5.60;;;10.30;99.90;;;;;;5110587;28;20051;-64
2023/03/31 03:49:40;;;;;;;10.50;4.40;;;10.30;99.90;;;;;;5094557;28;20086;-63
2023/03/31 03:52:06;;;;;;;10.68;4.57;;;10.20;99.90;;;;;;5112241;28;20485;-63
2023/03/31 03:54:33;;;;;;;11.50;4.25;;;10.20;99.90;;;;;;5112343;28;20071;-64
2023/03/31 03:56:59;;;;;;;11.73;4.30;;;10.30;99.90;;;;;;5111817;28;20047;-64
2023/03/31 03:59:26;;;;;;;10.98;4.28;;;10.20;99.90;;;;;;5112398;28;20075;-63
2023/03/31 04:01:52;;;;;;;7.63;3.90;;;10.10;99.90;;;;;;5077666;28;20093;-63
2023/03/31 04:04:18;;;;;;;9.80;4.25;;;10.10;99.90;;;;;;5112353;28;20079;-63
2023/03/31 04:06:45;;;;;;;9.40;4.40;;;10.30;99.90;;;;;;5111343;28;20090;-64
2023/03/31 04:09:11;;;;;;;6.97;3.60;;;10.30;99.90;;;;;;5112404;28;20368;-64
2023/03/31 04:11:37;;;;;;;9.93;4.18;;;10.20;99.90;;;;;;5112291;28;20058;-64
2023/03/31 04:14:04;;;;;;;10.13;4.03;;;10.20;99.90;;;;;;5112634;28;20057;-64
2023/03/31 04:16:33;;;;;;;11.60;4.30;;;10.30;99.90;;;;;;5077819;28;20078;-64
2023/03/31 04:19:02;;;;;;;9.52;4.30;;;10.20;99.90;;;;;;5111749;28;20123;-64
2023/03/31 04:21:29;;;;;;;10.35;3.88;;;10.20;99.90;;;;;;5112165;28;20047;-64
2023/03/31 04:24:00;;;;;;;10.43;3.78;;;10.20;99.90;;;;;;5111906;28;20060;-63
2023/03/31 04:26:37;;;;;;;10.45;3.78;;;10.30;99.90;;;;;;5094497;28;20127;-63
2023/03/31 04:29:06;;;;;;;8.13;3.28;;;10.20;99.90;;;;;;5111931;28;20051;-64
2023/03/31 04:31:33;;;;;;;7.80;3.00;;;10.30;99.90;;;;;;5093893;28;20075;-64
2023/03/31 04:34:05;;;;;;;10.68;3.60;;;10.20;99.90;;;;;;5111932;28;20471;-63
2023/03/31 04:36:32;;;;;;;9.93;3.70;;;10.40;99.90;;;;;;5111108;28;20473;-63
2023/03/31 04:38:59;;;;;;;9.02;3.88;;;10.40;99.90;;;;;;5111597;28;20106;-63
2023/03/31 04:41:26;;;;;;;10.27;4.18;;;10.20;99.90;;;;;;5111772;28;20104;-64
2023/03/31 04:43:53;;;;;;;9.18;3.58;;;10.20;99.90;;;;;;5111953;28;20434;-63
2023/03/31 04:46:20;;;;;;;9.35;3.63;;;10.20;99.90;;;;;;5111709;28;20036;-65
2023/03/31 04:48:46;;;;;;;7.43;3.75;;;10.30;99.90;;;;;;5111307;28;20090;-65
2023/03/31 04:51:14;;;;;;;12.65;3.63;;;10.20;99.90;;;;;;5111744;28;20050;-63
2023/03/31 04:53:40;;;;;;;7.50;3.75;;;10.20;99.90;;;;;;5111817;28;20083;-64
2023/03/31 04:56:06;;;;;;;6.43;3.63;;;10.20;99.90;;;;;;5114266;28;20827;-64
2023/03/31 04:58:33;;;;;;;13.68;4.13;;;10.30;99.90;;;;;;5119725;28;20086;-63
2023/03/31 05:00:59;;;;;;;11.07;3.63;;;10.10;99.90;;;;;;5100061;28;20132;-64
2023/03/31 05:03:25;;;;;;;12.38;4.53;;;10.30;99.90;;;;;;5099302;28;20101;-63
2023/03/31 05:05:52;;;;;;;8.70;4.40;;;10.10;99.90;;;;;;5111153;28;20474;-64
2023/03/31 05:08:19;;;;;;;9.25;4.18;;;10.20;99.90;;;;;;5097961;28;20043;-64
2023/03/31 05:10:46;;;;;;;13.48;4.00;;;10.30;99.90;;;;;;5098924;28;20471;-64
2023/03/31 05:13:12;;;;;;;8.98;3.53;;;10.20;99.90;;;;;;5112543;28;20522;-64
2023/03/31 05:15:39;;;;;;;7.78;3.42;;;10.20;99.90;;;;;;5120922;28;20137;-64
2023/03/31 05:18:06;;;;;;;8.55;3.78;;;10.10;99.90;;;;;;5119457;27;20122;-64
2023/03/31 05:20:33;;;;;;;8.93;3.63;;;10.10;99.90;;;;;;5123614;27;20100;-62
2023/03/31 05:22:59;;;;;;;7.72;3.83;;;10.10;99.90;;;;;;5098978;28;20090;-62
2023/03/31 05:25:31;;;;;;;8.70;4.10;;;10.10;99.90;;;;;;5080362;28;20067;-61
2023/03/31 05:27:58;;;;;;;;;;;10.00;99.90;;;;;;5115340;28;20043;-63
2023/03/31 05:30:25;;;;;;;7.50;3.88;;;10.10;99.90;;;;;;5115399;28;19924;-63
2023/03/31 05:32:52;;;;;;;8.48;3.55;;;10.00;99.90;;;;;;5093014;28;20044;-64
2023/03/31 05:35:18;;;;;;;6.97;3.17;;;10.10;99.90;;;;;;5097188;27;20078;-63
2023/03/31 05:37:44;;;;;;;10.00;3.33;;;10.10;99.90;;;;;;5112606;28;20088;-63
2023/03/31 05:40:11;;;;;;;8.90;3.67;;;9.90;99.90;;;;;;5114574;28;20079;-63
2023/03/31 05:42:37;;;;;;;10.38;3.00;;;10.10;99.90;;;;;;5097120;28;20048;-63
2023/03/31 05:45:04;;;;;;;9.40;2.97;;;10.00;99.90;;;;;;5114996;28;20048;-63
2023/03/31 05:47:31;;;;;;;4.72;2.78;;;9.90;99.90;;;;;;5116659;27;20105;-63
2023/03/31 05:49:57;;;;;;;7.97;3.05;;;9.90;99.90;;;;;;5114789;28;20093;-62
2023/03/31 05:52:23;;;;;;;8.88;2.92;;;9.90;99.90;;;;;;5114730;28;20043;-62
2023/03/31 05:54:50;;;;;;;7.22;2.95;;;10.00;99.90;;;;;;5114822;28;20130;-63
2023/03/31 05:57:16;;;;;;;7.20;3.08;;;10.00;99.90;;;;;;5114611;28;20062;-64
2023/03/31 05:59:42;;;;;;;7.68;2.83;;;9.90;99.90;;;;;;5114967;28;20094;-63
2023/03/31 06:02:12;;;;;;;9.65;2.92;;;10.00;99.90;;;;;;5114640;28;20047;-63
2023/03/31 06:04:38;;;;;;;7.75;3.03;;;10.00;99.90;;;;;;5114181;28;20086;-63
2023/03/31 06:07:05;;;;;;;8.57;3.53;;;10.00;99.90;;;;;;5129315;27;20134;-63
2023/03/31 06:09:31;;;;;;;7.95;3.50;;;9.90;99.90;;;;;;5095659;28;20051;-64
2023/03/31 06:11:57;;;;;;;8.65;3.38;;;10.00;99.90;;;;;;5095363;28;20079;-63
2023/03/31 06:14:24;;;;;;;9.90;4.03;;;10.00;99.90;;;;;;5114328;28;20076;-64
2023/03/31 06:16:50;;;;;;;6.75;4.30;;;10.00;99.90;;;;;;5113848;28;20104;-62
2023/03/31 06:19:16;;;;;;;9.40;3.80;;;9.90;99.90;;;;;;5096298;28;20428;-63
2023/03/31 06:21:43;;;;;;;9.60;4.28;;;10.10;99.90;;;;;;5096358;28;20058;-63
2023/03/31 06:24:09;;;;;;;7.20;4.18;;;10.00;99.90;;;;;;5114007;28;20505;-63
2023/03/31 06:26:35;;;;;;;9.55;4.40;;;10.10;99.90;;;;;;5095628;28;20144;-63
2023/03/31 06:29:02;;;;;;;8.43;3.85;;;9.90;99.90;;;;;;5095154;28;20043;-63
2023/03/31 06:31:28;;;;;;;7.15;3.58;;;10.00;99.90;;;;;;5095698;28;20054;-64
2023/03/31 06:33:55;;;;;;;6.57;3.67;;;10.10;99.90;;;;;;5078630;28;20565;-62
2023/03/31 06:36:21;;;;;;;7.82;4.00;;;9.90;99.90;;;;;;5089952;28;20051;-63
2023/03/31 06:38:49;;;;;;;7.45;3.30;;;10.10;99.90;;;;;;5112031;28;20043;-64
2023/03/31 06:41:17;;;;;;;5.50;4.00;;;10.00;99.90;;;;;;5110836;28;20040;-63
2023/03/31 06:43:44;;;;;;;10.02;4.30;;;10.10;99.90;;;;;;5112503;28;20051;-63
2023/03/31 06:46:10;;;;;;;8.25;3.70;;;10.20;99.90;;;;;;5114057;28;20337;-63
2023/03/31 06:48:36;;;;;;;7.63;3.42;;;10.10;99.90;;;;;;5091333;28;20056;-63
2023/03/31 06:51:05;;;;;;;7.30;3.63;;;10.20;99.90;;;;;;5114346;28;20072;-63
2023/03/31 06:53:31;;;;;;;6.18;3.45;;;10.10;99.90;;;;;;5113899;28;20087;-64
2023/03/31 06:55:58;;;;;;;5.13;3.20;;;10.30;99.90;;;;;;5108659;28;20317;-64
2023/03/31 06:58:24;;;;;;;8.63;3.58;;;10.30;99.90;;;;;;5084823;28;20048;-63
2023/03/31 07:00:51;;;;;;;9.48;3.85;;;10.20;99.90;;;;;;5096104;28;20760;-64
2023/03/31 07:03:21;;;;;;;7.00;3.20;;;10.30;99.90;;;;;;5095809;28;20073;-64
2023/03/31 07:05:49;;;;;;;10.27;3.83;;;10.20;99.90;;;;;;5096302;28;20112;-63
2023/03/31 07:08:16;;;;;;;8.38;3.53;;;10.40;99.90;;;;;;5095200;28;20047;-63
2023/03/31 07:10:46;;;;;;;5.97;3.35;;;10.20;99.90;;;;;;5095637;28;20051;-64
2023/03/31 07:13:14;;;;;;;7.68;3.28;;;10.40;99.90;;;;;;5088851;28;20628;-64
2023/03/31 07:15:41;;;;;;;8.45;4.28;;;10.40;99.90;;;;;;5058870;28;20447;-63
2023/03/31 07:18:07;;;;;;;11.10;3.10;;;10.50;99.90;;;;;;5081171;28;20117;-64
2023/03/31 07:20:35;;;;;;;10.38;3.80;;;10.50;99.90;;;;;;5095440;28;20047;-64
2023/03/31 07:23:04;;;;;;;8.70;2.60;;;10.60;99.90;;;;;;5113886;28;20490;-64
2023/03/31 07:25:33;;;;;;;8.95;3.78;;;10.60;99.90;;;;;;5091820;28;20051;-64
2023/03/31 07:28:02;;;;;;;13.45;4.88;;;10.60;99.90;;;;;;5092627;28;20093;-64
2023/03/31 07:30:28;;;;;;;7.18;3.15;;;10.50;99.90;;;;;;5093115;28;20052;-64
2023/03/31 07:32:55;;;;;;;7.57;3.03;;;10.60;99.90;;;;;;5092749;28;20460;-64
2023/03/31 07:35:21;;;;;;;8.27;2.90;;;10.60;99.90;;;;;;5093014;28;20154;-64
2023/03/31 07:37:49;;;;;;;11.43;3.60;;;10.60;99.90;;;;;;5088836;28;20040;-63
2023/03/31 07:40:22;;;;;;;8.48;3.60;;;10.60;99.90;;;;;;5071387;28;20048;-64
2023/03/31 07:42:51;;;;;;;7.22;2.90;;;10.70;99.90;;;;;;5093299;28;20044;-64
2023/03/31 07:45:19;;;;;;;7.22;3.03;;;10.90;99.90;;;;;;5074944;28;20044;-63
2023/03/31 07:47:46;;;;;;;10.00;3.67;;;10.80;99.90;;;;;;5061097;28;20174;-63
2023/03/31 07:50:14;;;;;;;6.82;2.92;;;10.70;99.90;;;;;;5074800;28;20066;-64
2023/03/31 07:52:42;;;;;;;10.23;3.03;;;10.80;99.90;;;;;;5092660;28;20043;-63
2023/03/31 07:55:09;;;;;;;6.68;2.88;;;10.80;99.90;;;;;;5092675;28;20047;-64
2023/03/31 07:57:36;;;;;;;6.75;3.15;;;10.90;99.90;;;;;;5092070;28;20047;-63
2023/03/31 08:00:08;;;;;;;7.13;3.03;;;11.00;99.90;;;;;;5092789;28;20101;-64
2023/03/31 08:02:34;;;;;;;9.18;3.15;;;10.90;99.90;;;;;;5092347;28;20086;-64
2023/03/31 08:05:01;;;;;;;8.10;3.33;;;10.90;99.90;;;;;;5092790;28;20056;-64
2023/03/31 08:07:29;;;;;;;6.35;2.65;;;11.00;99.90;;;;;;5091737;28;20117;-65
2023/03/31 08:09:57;;;;;;;7.25;3.10;;;11.00;99.90;;;;;;5092496;28;20130;-64
2023/03/31 08:12:23;;;;;;;6.93;2.83;;;11.10;99.90;;;;;;5092355;28;20142;-65
2023/03/31 08:14:50;;;;;;;8.55;3.30;;;11.10;99.90;;;;;;5092659;28;20047;-64
2023/03/31 08:17:16;;;;;;;6.85;3.17;;;11.10;99.90;;;;;;5092094;28;20363;-63
2023/03/31 08:19:42;;;;;;;8.07;3.15;;;11.00;99.90;;;;;;5074289;28;20044;-64
2023/03/31 08:22:09;;;;;;;5.40;2.80;;;11.20;99.90;;;;;;5074435;28;20063;-63
2023/03/31 08:24:35;;;;;;;7.80;2.90;;;11.20;99.90;;;;;;5074182;28;20109;-64
2023/03/31 08:27:01;;;;;;;6.32;3.03;;;11.20;99.90;;;;;;5073094;28;20056;-64
2023/03/31 08:29:28;;;;;;;6.10;3.15;;;11.30;99.90;;;;;;5074037;28;20040;-64
2023/03/31 08:31:54;;;;;;;6.18;3.28;;;11.40;99.90;;;;;;5091899;28;20127;-64
2023/03/31 08:34:20;;;;;;;5.53;2.53;;;11.50;99.90;;;;;;5073927;28;20079;-64
2023/03/31 08:36:47;;;;;;;8.00;2.70;;;11.50;99.90;;;;;;5091710;28;20129;-64
2023/03/31 08:39:13;;;;;;;4.88;2.65;;;11.60;99.90;;;;;;5091959;28;20082;-65
2023/03/31 08:41:57;;;;;;;6.30;2.40;;;11.50;99.90;;;;;;5091806;28;20424;-64
2023/03/31 08:44:35;;;;;;;3.47;2.50;;;11.40;99.90;;;;;;5091983;28;20079;-64
2023/03/31 08:47:02;;;;;;;;;;;11.50;99.90;;;;;;5069825;28;20465;-64
2023/03/31 08:49:38;;;;;;;6.25;2.05;;;11.30;99.90;;;;;;5087893;28;19970;-64
2023/03/31 08:52:11;;;;;;;4.90;2.30;;;11.40;99.90;;;;;;5093510;28;20109;-64
2023/03/31 08:54:41;;;;;;;7.05;2.15;;;11.30;99.90;;;;;;5078436;28;20268;-64
2023/03/31 08:57:25;;;;;;;4.65;2.03;;;11.40;99.90;;;;;;5095699;28;20087;-63
2023/03/31 08:59:57;;;;;;;4.65;2.13;;;11.30;99.90;;;;;;5096119;28;20052;-64
2023/03/31 09:02:39;;;;;;;5.28;1.92;;;11.20;99.90;;;;;;5095844;28;20040;-64
2023/03/31 09:05:11;;;;;;;5.15;1.95;;;11.20;99.90;;;;;;5096430;28;20046;-63
2023/03/31 09:08:10;;;;;;;5.70;2.00;;;11.20;99.90;;;;;;5095403;28;20082;-63
2023/03/31 09:10:46;;;;;;;3.70;1.90;;;11.20;99.90;;;;;;5096139;28;20109;-63
2023/03/31 09:13:29;;;;;;;6.97;2.00;;;11.30;99.90;;;;;;5077969;28;20055;-63
2023/03/31 09:16:11;;;;;;;7.47;2.33;;;11.30;99.90;;;;;;5095666;28;20138;-63
2023/03/31 09:18:39;;;;;;;6.30;1.92;;;11.20;99.90;;;;;;5077542;28;20048;-62
2023/03/31 09:21:23;;;;;;;9.10;2.47;;;11.20;99.90;;;;;;5095745;28;20054;-63
2023/03/31 09:24:02;;;;;;;4.65;1.75;;;11.40;99.90;;;;;;5077507;28;20083;-62
2023/03/31 09:26:38;;;;;;;3.53;1.98;;;11.30;99.90;;;;;;5077401;28;20368;-62
2023/03/31 09:29:14;;;;;;;4.65;2.10;;;11.50;99.90;;;;;;5076967;28;20047;-62
2023/03/31 09:31:42;;;;;;;5.93;2.17;;;11.40;99.90;;;;;;5077690;28;20052;-62
2023/03/31 09:34:13;;;;;;;4.15;1.75;;;11.60;99.90;;;;;;5095312;28;20070;-63
2023/03/31 09:36:40;;;;;;;6.25;2.15;;;11.70;99.90;;;;;;5060655;28;20060;-63
2023/03/31 09:39:12;;;;;;;4.40;2.40;;;11.60;99.90;;;;;;5076789;28;20044;-63
2023/03/31 09:41:42;;;;;;;3.85;2.33;;;11.80;99.90;;;;;;5077516;28;20048;-64
2023/03/31 09:44:28;;;;;;;6.10;2.25;;;11.70;99.90;;;;;;5076948;28;20348;-63
2023/03/31 09:46:55;;;;;;;7.63;2.17;;;11.90;99.90;;;;;;5073341;28;20105;-64
2023/03/31 09:49:25;;;;;;;6.75;2.00;;;12.00;99.90;;;;;;5071804;28;20056;-63
2023/03/31 09:52:11;;;;;;;6.55;2.33;;;11.90;99.90;;;;;;5060619;28;20087;-63
2023/03/31 09:54:47;;;;;;;7.72;1.98;;;12.00;99.90;;;;;;5076950;28;20387;-63
2023/03/31 09:57:28;;;;;;;4.10;2.42;;;12.20;99.90;;;;;;5077126;28;20076;-64
2023/03/31 10:00:05;;;;;;;5.53;2.35;;;12.40;99.90;;;;;;5094615;28;20082;-64
2023/03/31 10:02:31;;;;;;;4.20;2.50;;;12.70;99.90;;;;;;5077145;28;20379;-63
2023/03/31 10:04:58;;;;;;;3.70;2.22;;;12.80;99.90;;;;;;5093840;28;20463;-63
2023/03/31 10:07:25;;;;;;;4.18;2.10;;;12.80;99.90;;;;;;5094249;28;20090;-64
2023/03/31 10:09:53;;;;;;;4.65;2.25;;;12.90;99.90;;;;;;5094189;28;20609;-64
2023/03/31 10:12:23;;;;;;;5.28;2.35;;;12.80;99.90;;;;;;5076411;28;20079;-64
2023/03/31 10:14:52;;;;;;;5.18;2.50;;;12.80;99.90;;;;;;5094638;28;20044;-63
2023/03/31 10:17:26;;;;;;;5.75;2.83;;;12.80;99.90;;;;;;5094144;28;20071;-63
2023/03/31 10:19:52;;;;;;;5.85;2.55;;;12.50;99.90;;;;;;5094350;28;20051;-64
2023/03/31 10:22:21;;;;;;;4.60;2.28;;;12.60;99.90;;;;;;5094302;28;20079;-63
2023/03/31 10:24:50;;;;;;;6.05;2.92;;;12.60;99.90;;;;;;5094109;28;20048;-64
2023/03/31 10:27:25;;;;;;;4.90;2.30;;;12.40;99.90;;;;;;5076169;28;20048;-63
2023/03/31 10:30:09;;;;;;;6.82;2.47;;;12.30;99.90;;;;;;5076240;28;20126;-63
2023/03/31 10:32:41;;;;;;;6.65;2.60;;;12.30;99.90;;;;;;5075931;28;20047;-63
2023/03/31 10:35:32;;;;;;;7.38;2.35;;;12.30;99.90;;;;;;5076399;28;20052;-63
2023/03/31 10:38:16;;;;;;;4.30;2.17;;;12.20;99.90;;;;;;5075754;28;20054;-65
2023/03/31 10:40:54;;;;;;;6.43;2.30;;;12.20;99.90;;;;;;5076791;28;20087;-64
2023/03/31 10:43:27;;;;;;;5.35;2.92;;;12.20;99.90;;;;;;5076173;28;20503;-63
2023/03/31 10:46:03;;;;;;;7.82;2.60;;;12.20;99.90;;;;;;5075686;28;20066;-64
2023/03/31 10:48:38;;;;;;;5.88;2.88;;;12.20;99.90;;;;;;5067737;28;20044;-63
2023/03/31 10:51:10;;;;;;;6.20;2.90;;;12.30;99.90;;;;;;5076208;28;20420;-64
2023/03/31 10:53:48;;;;;;;7.00;3.30;;;12.20;99.90;;;;;;5059219;28;20527;-62
2023/03/31 10:56:36;;;;;;;6.35;2.53;;;12.30;99.90;;;;;;5075897;28;20325;-64
2023/03/31 10:59:39;;;;;;;7.75;3.22;;;12.40;99.90;;;;;;5075319;28;20055;-63
2023/03/31 11:02:35;;;;;;;7.80;2.70;;;12.30;99.90;;;;;;5076079;28;20066;-63
2023/03/31 11:05:26;;;;;;;7.75;3.20;;;12.20;99.90;;;;;;5075670;28;20144;-63
2023/03/31 11:08:04;;;;;;;7.10;3.25;;;12.40;99.90;;;;;;5075323;28;20095;-63
2023/03/31 11:10:42;;;;;;;7.82;3.33;;;12.40;99.90;;;;;;5075868;28;20055;-63
2023/03/31 11:13:28;;;;;;;8.32;2.83;;;12.40;99.90;;;;;;5075600;28;20044;-63
2023/03/31 11:16:00;;;;;;;7.47;2.70;;;12.40;99.90;;;;;;5074160;28;20447;-63
2023/03/31 11:18:44;;;;;;;7.68;3.38;;;12.30;99.90;;;;;;5075490;28;20075;-63
2023/03/31 11:21:38;;;;;;;8.48;3.97;;;12.40;99.90;;;;;;5058791;28;20460;-62
2023/03/31 11:24:43;;;;;;;5.70;2.70;;;12.30;99.90;;;;;;5075203;28;20151;-64
2023/03/31 11:27:18;;;;;;;6.38;2.80;;;12.50;99.90;;;;;;5074848;28;20059;-63
2023/03/31 11:30:03;;;;;;;6.57;3.20;;;12.70;99.90;;;;;;5075051;28;20356;-64
2023/03/31 11:32:42;;;;;;;9.25;3.35;;;12.70;99.90;;;;;;5075077;28;20044;-63
2023/03/31 11:35:37;;;;;;;5.75;2.85;;;13.00;99.90;;;;;;5074210;28;20127;-62
2023/03/31 11:38:14;;;;;;;7.82;3.72;;;13.00;99.90;;;;;;5071417;28;20043;-63
2023/03/31 11:40:58;;;;;;;6.43;3.30;;;12.90;99.90;;;;;;5092684;28;20040;-63
2023/03/31 11:43:54;;;;;;;7.68;3.95;;;12.90;99.90;;;;;;5070670;28;20040;-62
2023/03/31 11:46:32;;;;;;;;;;;12.80;99.90;;;;;;5055050;28;20432;-63
2023/03/31 11:49:02;;;;;;;12.90;3.50;;;12.90;99.90;;;;;;5072683;28;19920;-62
2023/03/31 11:51:42;;;;;;;13.80;4.22;;;12.90;99.90;;;;;;5074761;28;20063;-62
2023/03/31 11:54:19;;;;;;;9.82;3.67;;;13.00;99.90;;;;;;5074723;28;20058;-62
2023/03/31 11:56:45;;;;;;;10.52;3.70;;;13.20;99.90;;;;;;5074750;28;20087;-63
2023/03/31 11:59:16;;;;;;;8.10;3.03;;;13.30;99.90;;;;;;5070960;28;20047;-64
2023/03/31 12:02:10;;;;;;;9.25;3.60;;;13.40;99.90;;;;;;5074407;28;20127;-63
2023/03/31 12:04:44;;;;;;;10.88;3.00;;;13.50;99.90;;;;;;5073755;28;20113;-63
2023/03/31 12:07:31;;;;;;;7.68;3.05;;;13.50;99.90;;;;;;5073711;28;20389;-63
2023/03/31 12:10:20;;;;;;;8.52;2.97;;;13.50;99.90;;;;;;5073672;28;20467;-63
2023/03/31 12:12:57;;;;;;;10.07;3.22;;;13.50;99.90;;;;;;5085067;28;20087;-63
2023/03/31 12:15:50;;;;;;;10.38;3.22;;;13.50;99.90;;;;;;5072381;28;20036;-63
2023/03/31 12:18:26;;;;;;;10.98;2.95;;;13.50;99.90;;;;;;5071554;28;20126;-63
2023/03/31 12:20:59;;;;;;;12.45;3.80;;;13.40;99.90;;;;;;5091948;28;20040;-63
2023/03/31 12:23:30;;;;;;;9.20;3.03;;;13.30;99.90;;;;;;5070866;28;20080;-64
2023/03/31 12:26:35;;;;;;;11.50;3.22;;;13.20;99.90;;;;;;5070721;28;20048;-63
2023/03/31 12:29:31;;;;;;;11.00;3.22;;;13.20;99.90;;;;;;5069171;28;20059;-62
2023/03/31 12:32:02;;;;;;;8.95;3.30;;;13.30;99.90;;;;;;5071485;28;20036;-63
2023/03/31 12:34:30;;;;;;;9.38;3.35;;;13.30;99.90;;;;;;5073495;28;20381;-63
2023/03/31 12:37:25;;;;;;;10.75;3.70;;;13.40;99.90;;;;;;5073555;28;20036;-63
2023/03/31 12:40:11;;;;;;;9.00;2.72;;;13.40;99.90;;;;;;5070228;28;20173;-63
2023/03/31 12:42:49;;;;;;;7.72;2.78;;;13.40;99.90;;;;;;5052115;28;20237;-64
2023/03/31 12:45:27;;;;;;;10.15;2.50;;;13.40;99.90;;;;;;5073290;28;20379;-63
2023/03/31 12:48:24;;;;;;;8.65;2.30;;;13.30;99.90;;;;;;5090521;28;20040;-64
2023/03/31 12:51:04;;;;;;;5.63;2.10;;;13.40;99.90;;;;;;5091302;28;20039;-62
2023/03/31 12:54:03;;;;;;;6.65;2.28;;;13.50;99.90;;;;;;5091317;28;20048;-64
2023/03/31 12:57:07;;;;;;;9.00;2.58;;;13.60;99.90;;;;;;5073515;28;20127;-64
2023/03/31 12:59:39;;;;;;;8.13;2.83;;;13.60;99.90;;;;;;5073792;28;20433;-64
2023/03/31 13:02:15;;;;;;;6.03;2.88;;;13.70;99.90;;;;;;5073829;28;20083;-63
2023/03/31 13:04:43;;;;;;;11.27;3.17;;;13.60;99.90;;;;;;5091954;28;20048;-63
2023/03/31 13:07:33;;;;;;;9.15;2.97;;;13.20;99.90;;;;;;5073848;28;20131;-64
2023/03/31 13:10:17;;;;;;;8.60;2.30;;;12.90;99.90;;;;;;5073295;28;20364;-63
2023/03/31 13:13:13;;;;;;;9.60;2.30;;;12.90;99.90;;;;;;5057693;28;20056;-64
2023/03/31 13:15:39;;;;;;;9.27;2.80;;;12.80;99.90;;;;;;5057368;28;20396;-64
2023/03/31 13:18:16;;;;;;;8.10;2.20;;;12.90;99.90;;;;;;5091429;28;20102;-64